createdAt,value
2019-03-24T00:00:13.998Z,4.54
2019-03-24T00:02:43.236Z,4.62
2019-03-24T00:05:12.321Z,4.68
2019-03-24T00:07:41.328Z,4.58
2019-03-24T00:10:10.533Z,4.32
2019-03-24T00:12:39.486Z,4.27
2019-03-24T00:15:08.716Z,4.43
2019-03-24T00:17:37.715Z,4.43
2019-03-24T00:20:10.031Z,4.55
2019-03-24T00:22:38.448Z,4.52
2019-03-24T00:25:08.463Z,4.45
2019-03-24T00:27:37.642Z,4.30
2019-03-24T00:30:07.175Z,4.35
2019-03-24T00:32:36.126Z,4.33
2019-03-24T00:35:05.127Z,4.41
2019-03-24T00:37:34.157Z,4.41
2019-03-24T00:40:03.269Z,4.32
2019-03-24T00:42:33.056Z,4.36
2019-03-24T00:45:02.046Z,4.45
2019-03-24T00:47:30.979Z,4.38
2019-03-24T00:49:59.856Z,4.44
2019-03-24T00:52:29.241Z,4.27
2019-03-24T00:54:58.120Z,4.36
2019-03-24T00:57:27.051Z,4.09
2019-03-24T00:59:56.299Z,3.97
2019-03-24T01:02:25.676Z,4.09
2019-03-24T01:04:54.736Z,4.14
2019-03-24T01:07:23.652Z,4.29
2019-03-24T01:09:52.575Z,4.23
2019-03-24T01:12:21.614Z,3.93
2019-03-24T01:14:51.266Z,4.13
2019-03-24T01:17:20.345Z,4.27
2019-03-24T01:19:49.239Z,4.09
2019-03-24T01:22:18.798Z,4.09
2019-03-24T01:24:47.707Z,4.13
2019-03-24T01:27:16.591Z,3.88
2019-03-24T01:29:45.565Z,3.94
2019-03-24T01:32:14.844Z,3.89
2019-03-24T01:34:43.770Z,4.00
2019-03-24T01:37:12.671Z,4.18
2019-03-24T01:39:41.609Z,4.29
2019-03-24T01:42:10.589Z,4.28
2019-03-24T01:44:39.822Z,4.25
2019-03-24T01:47:11.727Z,4.03
2019-03-24T01:49:41.750Z,4.15
2019-03-24T01:52:10.687Z,3.99
2019-03-24T01:54:39.750Z,3.98
2019-03-24T01:57:08.653Z,3.92
2019-03-24T01:59:37.692Z,4.18
2019-03-24T02:02:06.667Z,4.15
2019-03-24T02:04:35.890Z,4.26
2019-03-24T02:07:04.805Z,4.19
2019-03-24T02:09:34.010Z,4.14
2019-03-24T02:12:03.056Z,4.34
2019-03-24T02:14:31.938Z,4.39
2019-03-24T02:17:00.909Z,4.17
2019-03-24T02:19:29.839Z,4.09
2019-03-24T02:21:58.881Z,4.24
2019-03-24T02:24:27.938Z,4.02
2019-03-24T02:26:56.884Z,4.14
2019-03-24T02:29:25.827Z,4.34
2019-03-24T02:31:54.761Z,4.41
2019-03-24T02:34:23.654Z,4.28
2019-03-24T02:36:52.678Z,4.29
2019-03-24T02:39:21.576Z,4.38
2019-03-24T02:41:50.623Z,4.32
2019-03-24T02:44:20.149Z,4.16
2019-03-24T02:46:49.064Z,4.25
2019-03-24T02:49:17.948Z,4.14
2019-03-24T02:51:46.957Z,4.09
2019-03-24T02:54:15.943Z,4.24
2019-03-24T02:56:44.834Z,4.21
2019-03-24T02:59:13.781Z,4.33
2019-03-24T03:01:43.057Z,4.28
2019-03-24T03:04:12.037Z,4.28
2019-03-24T03:06:40.982Z,4.38
2019-03-24T03:09:09.924Z,4.39
2019-03-24T03:11:38.844Z,4.48
2019-03-24T03:14:07.858Z,4.37
2019-03-24T03:16:38.567Z,4.48
2019-03-24T03:19:07.652Z,4.50
2019-03-24T03:21:36.875Z,4.52
2019-03-24T03:24:06.157Z,4.40
2019-03-24T03:26:35.075Z,4.38
2019-03-24T03:29:04.413Z,4.39
2019-03-24T03:31:33.417Z,4.31
2019-03-24T03:34:02.328Z,4.32
2019-03-24T03:36:31.779Z,4.40
2019-03-24T03:39:00.672Z,4.53
2019-03-24T03:41:30.255Z,4.57
2019-03-24T03:43:59.171Z,4.62
2019-03-24T03:46:28.129Z,4.64
2019-03-24T03:48:57.491Z,4.59
2019-03-24T03:51:26.414Z,4.55
2019-03-24T03:53:55.336Z,4.29
2019-03-24T03:56:24.433Z,4.33
2019-03-24T03:58:53.339Z,4.52
2019-03-24T04:01:22.285Z,4.49
2019-03-24T04:03:51.719Z,4.41
2019-03-24T04:06:20.636Z,4.40
2019-03-24T04:08:49.851Z,4.32
2019-03-24T04:11:18.766Z,4.28
2019-03-24T04:13:47.696Z,4.34
2019-03-24T04:16:16.967Z,4.47
2019-03-24T04:18:45.813Z,4.50
2019-03-24T04:21:15.186Z,4.57
2019-03-24T04:23:44.469Z,4.50
2019-03-24T04:26:13.723Z,4.21
2019-03-24T04:28:42.580Z,4.18
2019-03-24T04:31:11.563Z,4.29
2019-03-24T04:33:40.687Z,4.43
2019-03-24T04:36:09.563Z,4.50
2019-03-24T04:38:38.510Z,4.46
2019-03-24T04:41:07.399Z,4.37
2019-03-24T04:43:36.288Z,4.37
2019-03-24T04:46:05.555Z,4.44
2019-03-24T04:48:34.477Z,4.40
2019-03-24T04:51:03.506Z,4.56
2019-03-24T04:53:32.503Z,4.09
2019-03-24T04:56:01.516Z,4.16
2019-03-24T04:58:30.518Z,4.46
2019-03-24T05:00:59.707Z,4.44
2019-03-24T05:03:28.675Z,4.44
2019-03-24T05:05:58.094Z,4.40
2019-03-24T05:08:27.733Z,4.39
2019-03-24T05:10:56.660Z,4.34
2019-03-24T05:13:25.590Z,4.46
2019-03-24T05:15:54.840Z,4.52
2019-03-24T05:18:23.689Z,4.41
2019-03-24T05:20:52.939Z,4.59
2019-03-24T05:23:21.872Z,4.58
2019-03-24T05:25:51.389Z,4.47
2019-03-24T05:28:21.037Z,4.23
2019-03-24T05:30:49.899Z,4.41
2019-03-24T05:33:18.801Z,4.42
2019-03-24T05:35:47.725Z,4.42
2019-03-24T05:38:16.658Z,4.39
2019-03-24T05:40:45.528Z,4.29
2019-03-24T05:43:14.565Z,4.33
2019-03-24T05:45:43.457Z,4.10
2019-03-24T05:48:12.450Z,4.11
2019-03-24T05:50:41.654Z,4.40
2019-03-24T05:53:10.516Z,4.28
2019-03-24T05:55:39.426Z,4.09
2019-03-24T05:58:08.854Z,4.07
2019-03-24T06:00:37.741Z,4.06
2019-03-24T06:03:07.246Z,4.27
2019-03-24T06:05:36.165Z,4.34
2019-03-24T06:08:05.336Z,4.44
2019-03-24T06:10:34.668Z,4.60
2019-03-24T06:13:03.704Z,4.63
2019-03-24T06:15:32.594Z,4.40
2019-03-24T06:18:01.521Z,4.39
2019-03-24T06:20:30.405Z,4.55
2019-03-24T06:22:59.329Z,4.17
2019-03-24T06:25:28.577Z,4.39
2019-03-24T06:27:57.492Z,4.50
2019-03-24T06:30:26.396Z,4.49
2019-03-24T06:32:55.308Z,4.43
2019-03-24T06:35:24.214Z,4.54
2019-03-24T06:37:53.165Z,4.31
2019-03-24T06:40:22.122Z,3.89
2019-03-24T06:42:51.009Z,3.97
2019-03-24T06:45:27.982Z,4.26
2019-03-24T06:47:57.842Z,4.40
2019-03-24T06:50:22.251Z,4.56
2019-03-24T06:52:51.584Z,4.71
2019-03-24T06:55:20.494Z,5.04
2019-03-24T06:57:49.390Z,5.23
2019-03-24T07:00:18.341Z,5.25
2019-03-24T07:02:47.613Z,5.32
2019-03-24T07:05:16.563Z,5.45
2019-03-24T07:07:46.418Z,5.71
2019-03-24T07:10:15.396Z,6.12
2019-03-24T07:12:44.472Z,6.43
2019-03-24T07:15:13.724Z,6.62
2019-03-24T07:17:42.603Z,6.79
2019-03-24T07:20:12.359Z,6.82
2019-03-24T07:22:41.628Z,7.03
2019-03-24T07:25:10.630Z,7.45
2019-03-24T07:27:39.800Z,6.90
2019-03-24T07:30:10.084Z,7.66
2019-03-24T07:32:38.928Z,8.05
2019-03-24T07:35:07.821Z,8.18
2019-03-24T07:37:36.786Z,8.19
2019-03-24T07:40:08.301Z,8.22
2019-03-24T07:42:37.305Z,8.31
2019-03-24T07:45:08.135Z,8.29
2019-03-24T07:47:37.074Z,8.05
2019-03-24T07:50:07.485Z,8.40
2019-03-24T07:52:37.200Z,7.60
2019-03-24T07:55:09.961Z,7.89
2019-03-24T07:57:38.867Z,7.96
2019-03-24T08:00:09.034Z,7.85
2019-03-24T08:02:39.738Z,8.26
2019-03-24T08:05:08.751Z,7.93
2019-03-24T08:07:37.675Z,7.99
2019-03-24T08:10:06.927Z,7.84
2019-03-24T08:12:35.937Z,8.03
2019-03-24T08:15:05.162Z,8.05
2019-03-24T08:17:34.278Z,8.26
2019-03-24T08:20:03.335Z,8.04
2019-03-24T08:22:32.486Z,8.14
2019-03-24T08:25:01.738Z,7.85
2019-03-24T08:27:31.131Z,8.15
2019-03-24T08:30:00.359Z,7.84
2019-03-24T08:32:29.376Z,7.81
2019-03-24T08:34:58.780Z,7.58
2019-03-24T08:37:28.124Z,7.94
2019-03-24T08:39:57.070Z,7.97
2019-03-24T08:42:26.003Z,8.26
2019-03-24T08:44:54.854Z,8.34
2019-03-24T08:47:23.734Z,8.26
2019-03-24T08:49:53.075Z,8.50
2019-03-24T08:52:22.071Z,8.69
2019-03-24T08:54:50.955Z,8.41
2019-03-24T08:57:19.951Z,8.39
2019-03-24T08:59:48.803Z,8.33
2019-03-24T09:02:17.831Z,8.19
2019-03-24T09:04:46.777Z,7.91
2019-03-24T09:07:15.695Z,8.15
2019-03-24T09:09:44.593Z,8.40
2019-03-24T09:12:13.619Z,8.35
2019-03-24T09:14:43.448Z,7.67
2019-03-24T09:17:13.480Z,7.96
2019-03-24T09:19:42.455Z,8.74
2019-03-24T09:22:11.424Z,9.01
2019-03-24T09:24:40.500Z,9.18
2019-03-24T09:27:09.484Z,9.04
2019-03-24T09:29:38.345Z,9.08
2019-03-24T09:32:08.036Z,9.37
2019-03-24T09:34:36.953Z,9.31
2019-03-24T09:37:05.842Z,9.14
2019-03-24T09:39:34.960Z,9.21
2019-03-24T09:42:03.875Z,9.30
2019-03-24T09:44:32.730Z,9.07
2019-03-24T09:47:01.641Z,8.25
2019-03-24T09:49:30.584Z,9.17
2019-03-24T09:51:59.540Z,9.45
2019-03-24T09:54:29.526Z,9.42
2019-03-24T09:56:58.524Z,9.01
2019-03-24T09:59:27.468Z,8.42
2019-03-24T10:01:56.365Z,8.71
2019-03-24T10:04:25.381Z,8.71
2019-03-24T10:06:54.368Z,9.29
2019-03-24T10:09:23.226Z,9.54
2019-03-24T10:11:52.178Z,9.76
2019-03-24T10:14:21.087Z,9.30
2019-03-24T10:16:50.048Z,9.38
2019-03-24T10:19:19.029Z,9.42
2019-03-24T10:21:47.931Z,8.69
2019-03-24T10:24:16.825Z,9.25
2019-03-24T10:26:45.774Z,9.71
2019-03-24T10:29:15.134Z,9.29
2019-03-24T10:31:44.107Z,9.46
2019-03-24T10:34:13.534Z,9.24
2019-03-24T10:36:42.477Z,9.11
2019-03-24T10:39:11.395Z,9.30
2019-03-24T10:41:40.377Z,8.70
2019-03-24T10:44:09.271Z,8.51
2019-03-24T10:46:38.199Z,8.71
2019-03-24T10:49:07.117Z,9.62
2019-03-24T10:51:36.263Z,9.30
2019-03-24T10:54:05.282Z,9.95
2019-03-24T10:56:34.186Z,9.95
2019-03-24T10:59:03.519Z,10.00
2019-03-24T11:01:33.546Z,10.04
2019-03-24T11:04:02.463Z,10.02
2019-03-24T11:06:31.517Z,10.08
2019-03-24T11:09:00.707Z,9.58
2019-03-24T11:11:29.608Z,9.64
2019-03-24T11:13:58.501Z,9.87
2019-03-24T11:16:27.416Z,9.91
2019-03-24T11:18:56.605Z,8.97
2019-03-24T11:21:25.620Z,9.53
2019-03-24T11:23:54.517Z,10.22
2019-03-24T11:26:23.503Z,10.24
2019-03-24T11:28:52.393Z,10.42
2019-03-24T11:31:21.387Z,10.63
2019-03-24T11:33:50.372Z,10.46
2019-03-24T11:36:19.575Z,10.59
2019-03-24T11:38:48.491Z,10.86
2019-03-24T11:41:17.394Z,11.01
2019-03-24T11:43:46.597Z,10.82
2019-03-24T11:46:15.477Z,10.13
2019-03-24T11:48:44.416Z,9.85
2019-03-24T11:51:13.405Z,9.98
2019-03-24T11:53:42.692Z,9.89
2019-03-24T11:56:11.903Z,10.48
2019-03-24T11:58:40.883Z,10.77
2019-03-24T12:01:09.805Z,10.74
2019-03-24T12:03:39.054Z,10.76
2019-03-24T12:06:14.450Z,10.87
2019-03-24T12:08:38.985Z,11.04
2019-03-24T12:11:07.886Z,10.62
2019-03-24T12:13:37.898Z,10.53
2019-03-24T12:16:06.891Z,10.08
2019-03-24T12:18:35.829Z,9.63
2019-03-24T12:21:04.795Z,9.85
2019-03-24T12:23:33.874Z,9.71
2019-03-24T12:26:02.802Z,9.66
2019-03-24T12:28:31.825Z,9.44
2019-03-24T12:31:00.767Z,9.44
2019-03-24T12:33:29.688Z,9.74
2019-03-24T12:35:58.657Z,9.84
2019-03-24T12:38:27.557Z,9.85
2019-03-24T12:40:56.489Z,10.17
2019-03-24T12:43:25.445Z,10.01
2019-03-24T12:45:54.433Z,10.11
2019-03-24T12:48:23.696Z,10.04
2019-03-24T12:50:52.675Z,10.14
2019-03-24T12:53:21.656Z,10.36
2019-03-24T12:55:50.586Z,10.41
2019-03-24T12:58:19.896Z,10.38
2019-03-24T13:00:49.441Z,10.26
2019-03-24T13:03:18.748Z,10.39
2019-03-24T13:05:48.052Z,10.29
2019-03-24T13:08:18.660Z,10.40
2019-03-24T13:10:48.856Z,10.38
2019-03-24T13:13:17.792Z,10.22
2019-03-24T13:15:46.716Z,10.45
2019-03-24T13:18:15.744Z,10.38
2019-03-24T13:20:45.183Z,10.38
2019-03-24T13:23:14.189Z,10.51
2019-03-24T13:25:43.132Z,10.22
2019-03-24T13:28:12.086Z,10.69
2019-03-24T13:30:41.020Z,10.80
2019-03-24T13:33:09.988Z,10.73
2019-03-24T13:35:39.169Z,10.73
2019-03-24T13:38:08.650Z,10.91
2019-03-24T13:40:37.597Z,10.93
2019-03-24T13:43:06.928Z,10.95
2019-03-24T13:45:35.823Z,10.92
2019-03-24T13:48:04.821Z,10.94
2019-03-24T13:50:33.703Z,11.04
2019-03-24T13:53:02.767Z,11.22
2019-03-24T13:55:31.658Z,11.20
2019-03-24T13:58:00.718Z,11.04
2019-03-24T14:00:29.789Z,10.95
2019-03-24T14:02:59.608Z,10.77
2019-03-24T14:05:28.645Z,11.15
2019-03-24T14:07:57.566Z,11.00
2019-03-24T14:10:26.541Z,11.08
2019-03-24T14:12:55.497Z,11.10
2019-03-24T14:15:24.740Z,11.08
2019-03-24T14:17:53.626Z,11.11
2019-03-24T14:20:22.539Z,11.14
2019-03-24T14:22:51.673Z,10.99
2019-03-24T14:25:20.669Z,11.28
2019-03-24T14:27:49.549Z,11.41
2019-03-24T14:30:43.601Z,11.59
2019-03-24T14:33:13.700Z,11.56
2019-03-24T14:35:42.836Z,11.58
2019-03-24T14:38:11.754Z,11.62
2019-03-24T14:40:40.681Z,11.73
2019-03-24T14:43:09.898Z,11.92
2019-03-24T14:45:38.947Z,12.20
2019-03-24T14:48:07.906Z,12.15
2019-03-24T14:50:36.825Z,11.61
2019-03-24T14:53:05.683Z,11.32
2019-03-24T14:55:34.911Z,11.22
2019-03-24T14:58:03.797Z,11.35
2019-03-24T15:00:45.769Z,11.37
2019-03-24T15:03:14.735Z,11.49
2019-03-24T15:05:44.087Z,11.31
2019-03-24T15:08:12.979Z,11.46
2019-03-24T15:10:42.058Z,11.38
2019-03-24T15:13:11.266Z,11.40
2019-03-24T15:15:40.150Z,10.80
2019-03-24T15:18:09.095Z,11.08
2019-03-24T15:20:38.111Z,11.41
2019-03-24T15:23:07.470Z,11.27
2019-03-24T15:25:36.400Z,10.85
2019-03-24T15:28:05.421Z,11.03
2019-03-24T15:30:34.321Z,11.05
2019-03-24T15:33:03.248Z,11.20
2019-03-24T15:35:32.197Z,11.20
2019-03-24T15:38:08.114Z,11.15
2019-03-24T15:40:32.010Z,11.09
2019-03-24T15:43:00.962Z,10.90
2019-03-24T15:45:29.836Z,10.72
2019-03-24T15:47:59.715Z,10.82
2019-03-24T15:50:28.641Z,10.84
2019-03-24T15:52:57.580Z,10.81
2019-03-24T15:55:26.557Z,10.70
2019-03-24T15:57:55.510Z,10.63
2019-03-24T16:00:47.956Z,10.60
2019-03-24T16:03:17.072Z,10.71
2019-03-24T16:05:46.194Z,10.65
2019-03-24T16:08:15.205Z,10.62
2019-03-24T16:10:44.212Z,10.58
2019-03-24T16:13:13.148Z,10.30
2019-03-24T16:15:42.077Z,10.41
2019-03-24T16:18:11.129Z,10.20
2019-03-24T16:20:40.063Z,10.29
2019-03-24T16:23:09.000Z,10.25
2019-03-24T16:25:38.045Z,10.27
2019-03-24T16:28:07.038Z,10.29
2019-03-24T16:30:35.916Z,10.04
2019-03-24T16:33:04.984Z,10.28
2019-03-24T16:35:33.975Z,10.40
2019-03-24T16:38:03.185Z,10.24
2019-03-24T16:40:32.146Z,9.99
2019-03-24T16:43:01.066Z,9.96
2019-03-24T16:45:30.121Z,9.98
2019-03-24T16:47:59.434Z,9.96
2019-03-24T16:50:28.372Z,9.91
2019-03-24T16:52:57.397Z,9.78
2019-03-24T16:55:26.305Z,9.51
2019-03-24T16:57:55.395Z,9.34
2019-03-24T17:00:24.441Z,9.07
2019-03-24T17:02:53.348Z,9.25
2019-03-24T17:05:22.415Z,9.26
2019-03-24T17:07:51.713Z,9.43
2019-03-24T17:10:20.955Z,9.22
2019-03-24T17:12:49.999Z,9.30
2019-03-24T17:15:19.367Z,9.16
2019-03-24T17:17:48.275Z,9.15
2019-03-24T17:20:17.199Z,9.08
2019-03-24T17:22:46.101Z,9.16
2019-03-24T17:25:16.582Z,8.86
2019-03-24T17:27:45.498Z,8.96
2019-03-24T17:30:14.968Z,8.66
2019-03-24T17:32:44.018Z,8.83
2019-03-24T17:35:13.130Z,8.74
2019-03-24T17:37:42.283Z,8.70
2019-03-24T17:40:12.597Z,8.53
2019-03-24T17:42:41.617Z,8.45
2019-03-24T17:45:15.631Z,8.41
2019-03-24T17:47:44.644Z,8.39
2019-03-24T17:50:33.022Z,8.42
2019-03-24T17:53:02.049Z,8.40
2019-03-24T17:55:31.191Z,8.40
2019-03-24T17:58:00.479Z,8.33
2019-03-24T18:00:42.799Z,8.30
2019-03-24T18:03:11.699Z,8.18
2019-03-24T18:05:40.829Z,8.07
2019-03-24T18:08:10.013Z,7.84
2019-03-24T18:10:39.208Z,7.85
2019-03-24T18:13:08.100Z,7.74
2019-03-24T18:15:37.126Z,7.55
2019-03-24T18:18:06.189Z,7.58
2019-03-24T18:20:35.481Z,7.32
2019-03-24T18:23:04.611Z,7.42
2019-03-24T18:25:33.506Z,7.43
2019-03-24T18:28:02.529Z,7.44
2019-03-24T18:30:32.849Z,7.15
2019-03-24T18:33:02.086Z,7.34
2019-03-24T18:35:30.947Z,7.33
2019-03-24T18:37:59.870Z,7.31
2019-03-24T18:40:28.726Z,7.07
2019-03-24T18:42:57.667Z,7.26
2019-03-24T18:45:26.640Z,7.21
2019-03-24T18:47:55.591Z,7.11
2019-03-24T18:50:24.491Z,7.29
2019-03-24T18:52:53.431Z,7.35
2019-03-24T18:55:22.310Z,7.34
2019-03-24T18:57:53.049Z,7.16
2019-03-24T19:00:22.230Z,7.35
2019-03-24T19:02:51.662Z,7.30
2019-03-24T19:05:20.645Z,7.34
2019-03-24T19:07:49.890Z,7.28
2019-03-24T19:10:18.990Z,7.32
2019-03-24T19:12:48.766Z,7.23
2019-03-24T19:15:18.311Z,7.29
2019-03-24T19:17:47.318Z,7.20
2019-03-24T19:20:18.778Z,7.26
2019-03-24T19:22:47.803Z,7.19
2019-03-24T19:25:16.710Z,7.15
2019-03-24T19:27:45.618Z,7.36
2019-03-24T19:30:16.892Z,7.25
2019-03-24T19:32:46.307Z,7.14
2019-03-24T19:35:15.235Z,7.30
2019-03-24T19:37:45.871Z,7.39
2019-03-24T19:40:33.534Z,7.42
2019-03-24T19:43:02.500Z,7.19
2019-03-24T19:45:31.766Z,7.15
2019-03-24T19:48:01.875Z,7.28
2019-03-24T19:50:30.776Z,7.32
2019-03-24T19:52:59.717Z,7.28
2019-03-24T19:55:28.634Z,7.36
2019-03-24T19:57:57.824Z,7.15
2019-03-24T20:00:26.728Z,7.22
2019-03-24T20:02:55.641Z,6.94
2019-03-24T20:05:26.873Z,7.07
2019-03-24T20:07:55.694Z,6.95
2019-03-24T20:10:25.010Z,7.01
2019-03-24T20:12:53.962Z,7.14
2019-03-24T20:15:22.833Z,7.00
2019-03-24T20:17:51.755Z,6.90
2019-03-24T20:20:21.077Z,6.86
2019-03-24T20:22:56.368Z,6.86
2019-03-24T20:25:20.880Z,6.95
2019-03-24T20:27:49.936Z,6.85
2019-03-24T20:30:19.179Z,6.94
2019-03-24T20:32:48.082Z,6.89
2019-03-24T20:35:17.118Z,6.97
2019-03-24T20:37:46.334Z,6.89
2019-03-24T20:40:16.059Z,6.91
2019-03-24T20:42:44.983Z,6.92
2019-03-24T20:45:14.236Z,6.97
2019-03-24T20:47:43.245Z,7.07
2019-03-24T20:50:13.165Z,7.02
2019-03-24T20:52:42.510Z,7.05
2019-03-24T20:55:11.849Z,7.10
2019-03-24T20:57:40.780Z,7.02
2019-03-24T21:00:10.745Z,7.15
2019-03-24T21:02:40.864Z,7.19
2019-03-24T21:05:11.147Z,6.97
2019-03-24T21:07:41.008Z,7.04
2019-03-24T21:10:10.602Z,7.13
2019-03-24T21:12:40.303Z,7.00
2019-03-24T21:15:17.511Z,6.81
2019-03-24T21:17:46.904Z,6.84
2019-03-24T21:20:16.681Z,6.73
2019-03-24T21:22:46.724Z,6.63
2019-03-24T21:25:16.502Z,6.60
2019-03-24T21:27:46.152Z,6.56
2019-03-24T21:30:17.866Z,6.61
2019-03-24T21:32:47.317Z,6.49
2019-03-24T21:35:17.527Z,6.45
2019-03-24T21:37:47.196Z,6.37
2019-03-24T21:40:16.995Z,6.26
2019-03-24T21:42:46.219Z,6.23
2019-03-24T21:45:18.417Z,6.21
2019-03-24T21:47:47.515Z,6.16
2019-03-24T21:50:16.466Z,6.16
2019-03-24T21:52:45.423Z,6.02
2019-03-24T21:55:14.521Z,6.12
2019-03-24T21:57:43.494Z,6.09
2019-03-24T22:00:12.781Z,5.95
2019-03-24T22:02:41.837Z,5.91
2019-03-24T22:05:11.772Z,5.95
2019-03-24T22:07:41.741Z,5.91
2019-03-24T22:10:11.435Z,5.87
2019-03-24T22:12:40.832Z,5.68
2019-03-24T22:15:11.078Z,5.69
2019-03-24T22:17:41.016Z,5.69
2019-03-24T22:20:11.738Z,5.66
2019-03-24T22:22:41.496Z,5.65
2019-03-24T22:25:10.667Z,5.68
2019-03-24T22:27:39.630Z,5.57
2019-03-24T22:30:09.463Z,5.52
2019-03-24T22:32:38.392Z,5.45
2019-03-24T22:35:07.315Z,5.53
2019-03-24T22:37:36.221Z,5.43
2019-03-24T22:40:07.139Z,5.49
2019-03-24T22:42:36.017Z,5.52
2019-03-24T22:45:06.880Z,5.48
2019-03-24T22:47:35.765Z,5.46
2019-03-24T22:50:05.306Z,5.53
2019-03-24T22:52:34.358Z,5.53
2019-03-24T22:55:03.557Z,5.50
2019-03-24T22:57:32.748Z,5.65
2019-03-24T23:00:01.881Z,5.53
2019-03-24T23:02:30.781Z,5.68
2019-03-24T23:04:59.917Z,5.68
2019-03-24T23:07:29.440Z,5.65
2019-03-24T23:09:58.386Z,5.73
2019-03-24T23:12:27.447Z,5.84
2019-03-24T23:14:56.443Z,5.77
2019-03-24T23:17:25.823Z,5.75
2019-03-24T23:19:55.120Z,5.82
2019-03-24T23:22:24.721Z,5.87
2019-03-24T23:24:53.685Z,5.87
2019-03-24T23:27:22.903Z,5.86
2019-03-24T23:29:52.028Z,5.88
2019-03-24T23:32:21.097Z,5.76
2019-03-24T23:34:50.893Z,5.78
2019-03-24T23:37:20.025Z,5.79
2019-03-24T23:39:49.213Z,5.77
2019-03-24T23:42:18.318Z,5.76
2019-03-24T23:44:47.997Z,5.83
2019-03-24T23:47:17.162Z,5.80
2019-03-24T23:49:46.243Z,5.72
2019-03-24T23:52:15.834Z,5.69
2019-03-24T23:54:44.848Z,5.81
2019-03-24T23:57:13.755Z,5.76
2019-03-24T23:59:42.714Z,5.78
